Tin Ziren — 7THG — position and weather

sailwx.info

Track history (hours):
 
Tides and Currents Weather Stations Pressure Air Temp Water Temp Dewpoint Dewpoint Depression Visibility Wind Speed Wind Dir Waves Ship Positions

Tin Ziren

Last reported at 2017-Oct-16 08:11 UTC. Time now 2017-Oct-18 07:48 UTC.
Position N 36°39' E 001°20'.

Length 147 m; draft 7.6 m.

Type: Ship. MMSI: 605086070.

Date/timePositionNaut miles runAvg speedWind from/ knotsBaromVisibWave heightAir tempDewpointWater temp
2017-Oct-16 08:11N 36°39' E 001°20'314.2
2017-Oct-16 07:58N 36°39' E 001°16'31513.2
2017-Oct-15 08:12N 35°59' W 005°11'314.5
2017-Oct-15 08:01N 35°60' W 005°15'714.1
2017-Oct-15 07:30N 35°58' W 005°23'4013.1
2017-Oct-15 04:25N 35°54' W 006°13'713.4
2017-Oct-15 03:53N 35°55' W 006°21'513.4
2017-Oct-15 03:30N 35°57' W 006°27'713.0
2017-Oct-15 02:59N 35°58' W 006°35'613.0
2017-Oct-15 02:29N 36°00' W 006°43'613.1
2017-Oct-15 02:01N 36°02' W 006°51'713.1
2017-Oct-15 01:30N 36°03' W 006°59'713.4
2017-Oct-15 01:01N 36°05' W 007°07'713.6
2017-Oct-15 00:30N 36°06' W 007°15'714.0
2017-Oct-15 00:00N 36°08' W 007°23'713.8
2017-Oct-14 23:29N 36°10' W 007°32'613.4
2017-Oct-14 23:00N 36°12' W 007°39'813.5
2017-Oct-14 22:24N 36°14' W 007°49'613.5
2017-Oct-14 21:57N 36°16' W 007°56'714.5
2017-Oct-14 21:29N 36°18' W 008°04'714.4
2017-Oct-14 20:59N 36°20' W 008°13'714.3
2017-Oct-14 20:30N 36°21' W 008°21'814.3
2017-Oct-14 19:57N 36°23' W 008°31'714.2
2017-Oct-14 19:29N 36°25' W 008°39'714.3
2017-Oct-14 18:59N 36°26' W 008°48'714.8
2017-Oct-14 18:30N 36°28' W 008°56'814.9
2017-Oct-14 18:00N 36°30' W 009°05'714.6
2017-Oct-14 17:30N 36°32' W 009°14'714.0
2017-Oct-14 17:01N 36°36' W 009°21'714.4
2017-Oct-14 16:30N 36°42' W 009°27'714.5
2017-Oct-14 16:00N 36°47' W 009°33'714.4
2017-Oct-14 15:31N 36°54' W 009°35'714.4
2017-Oct-14 15:00N 37°01' W 009°37'714.2
2017-Oct-14 14:31N 37°08' W 009°39'714.1
2017-Oct-14 14:00N 37°15' W 009°41'713.6
2017-Oct-14 13:30N 37°21' W 009°43'713.7
2017-Oct-14 13:00N 37°28' W 009°44'713.7
2017-Oct-14 12:30N 37°35' W 009°46'713.9
2017-Oct-14 12:00N 37°41' W 009°48'714.2
2017-Oct-14 11:30N 37°48' W 009°50'714.1
2017-Oct-14 11:00N 37°55' W 009°52'714.7
2017-Oct-14 10:30N 38°02' W 009°55'714.9
2017-Oct-14 10:00N 38°09' W 009°57'714.1
2017-Oct-14 09:30N 38°16' W 009°59'714.5
2017-Oct-14 09:00N 38°23' W 010°01'714.5
2017-Oct-14 08:30N 38°30' W 010°03'714.5
2017-Oct-14 08:00N 38°38' W 010°05'714.5
2017-Oct-14 07:30N 38°45' W 010°06'714.6
2017-Oct-14 07:00N 38°52' W 010°06'714.8
2017-Oct-14 06:30N 38°59' W 010°06'714.7
2017-Oct-14 06:00N 39°07' W 010°06'714.7
2017-Oct-14 05:30N 39°14' W 010°05'714.8
2017-Oct-14 05:00N 39°21' W 010°05'714.6
2017-Oct-14 04:30N 39°29' W 010°06'714.2
2017-Oct-14 04:00N 39°36' W 010°07'714.3
2017-Oct-14 03:30N 39°43' W 010°07'714.4
2017-Oct-14 03:00N 39°50' W 010°06'714.4
2017-Oct-14 02:30N 39°57' W 010°06'714.1
2017-Oct-14 02:00N 40°05' W 010°06'714.3
2017-Oct-14 01:30N 40°12' W 010°06'714.1
2017-Oct-14 01:00N 40°19' W 010°06'714.3
2017-Oct-14 00:30N 40°26' W 010°06'714.2
2017-Oct-14 00:00N 40°33' W 010°07'714.2
2017-Oct-13 23:30N 40°40' W 010°07'714.5
2017-Oct-13 23:00N 40°47' W 010°06'1914.5
2017-Oct-13 21:43N 41°06' W 010°06'314.3
2017-Oct-13 21:30N 41°09' W 010°06'1614.4
2017-Oct-13 20:24N 41°25' W 010°06'614.7
2017-Oct-13 20:01N 41°31' W 010°05'714.6
2017-Oct-13 19:31N 41°38' W 010°05'714.8
2017-Oct-13 19:01N 41°45' W 010°05'714.8
2017-Oct-13 18:30N 41°53' W 010°06'34514.2
2017-Oct-12 18:09N 47°11' W 006°59'614.4
2017-Oct-12 17:43N 47°17' W 006°55'12513.8
2017-Oct-12 08:36N 49°05' W 005°19'3112.7
2017-Oct-12 06:11N 49°20' W 004°38'313.5
2017-Oct-12 05:59N 49°21' W 004°35'4314.2
2017-Oct-12 02:59N 49°43' W 003°38'714.1
2017-Oct-12 02:30N 49°47' W 003°29'713.6
2017-Oct-12 02:00N 49°50' W 003°20'913.2
2017-Oct-12 01:19N 49°55' W 003°08'412.6
2017-Oct-12 01:00N 49°57' W 003°03'712.1
2017-Oct-12 00:26N 49°59' W 002°53'9613.0
2017-Oct-11 17:04N 50°25' W 000°28'114.4
2017-Oct-11 17:00N 50°25' W 000°27'18610.9
2017-Oct-11 00:00N 51°23' E 004°13'3 6.5
2017-Oct-10 23:30N 51°21' E 004°17'0 0.0
2017-Oct-10 23:01N 51°21' E 004°17'0 0.1
2017-Oct-10 22:31N 51°21' E 004°17'1 1.7
2017-Oct-10 22:00N 51°20' E 004°18'3 6.4
2017-Oct-10 21:30N 51°17' E 004°20'2 4.9
2017-Oct-10 21:00N 51°15' E 004°22'0 0.5
2017-Oct-10 20:31N 51°15' E 004°22'0 0.0
2017-Oct-10 19:58N 51°15' E 004°22'0 0.0
2017-Oct-10 19:31N 51°15' E 004°22'0 0.0
2017-Oct-10 19:00N 51°15' E 004°22'0 0.0
2017-Oct-10 18:27N 51°15' E 004°22'0 0.0
2017-Oct-10 18:01N 51°15' E 004°22'0 0.0
2017-Oct-10 17:28N 51°15' E 004°22'0 0.0
2017-Oct-10 16:57N 51°15' E 004°22'0 0.0
2017-Oct-10 16:31N 51°15' E 004°22'0 0.0
2017-Oct-10 15:58N 51°15' E 004°22'0 0.0
2017-Oct-10 15:30N 51°15' E 004°22'0 0.0
2017-Oct-10 15:01N 51°15' E 004°22'0 0.0
2017-Oct-10 14:01N 51°15' E 004°22'0 0.0
2017-Oct-10 13:30N 51°15' E 004°22'0 0.0
2017-Oct-10 12:57N 51°15' E 004°22'0 0.0
2017-Oct-10 12:28N 51°15' E 004°22'0 0.0
2017-Oct-10 12:01N 51°15' E 004°22'0 0.0
2017-Oct-10 11:30N 51°15' E 004°22'0 0.0
2017-Oct-10 10:57N 51°15' E 004°22'0 0.0
2017-Oct-10 10:30N 51°15' E 004°22'0 0.0
2017-Oct-10 09:57N 51°15' E 004°22'0 0.0
2017-Oct-10 09:30N 51°15' E 004°22'0 0.0
2017-Oct-10 09:00N 51°15' E 004°22'0 0.0
2017-Oct-10 08:30N 51°15' E 004°22'0 0.0
2017-Oct-10 08:00N 51°15' E 004°22'0 0.0
2017-Oct-10 07:27N 51°15' E 004°22'0 0.0
2017-Oct-10 07:00N 51°15' E 004°22'0 0.0
2017-Oct-10 06:30N 51°15' E 004°22'0 0.0
2017-Oct-10 06:01N 51°15' E 004°22'0 0.0
2017-Oct-10 05:31N 51°15' E 004°22'0 0.0
2017-Oct-10 05:00N 51°15' E 004°22'0 0.0
2017-Oct-10 04:30N 51°15' E 004°22'0 0.0
2017-Oct-10 04:01N 51°15' E 004°22'0 0.0
2017-Oct-10 03:30N 51°15' E 004°22'0 0.0
2017-Oct-10 03:01N 51°15' E 004°22'0 0.0
2017-Oct-10 02:30N 51°15' E 004°22'0 0.0
2017-Oct-10 02:00N 51°15' E 004°22'0 0.0
2017-Oct-10 01:31N 51°15' E 004°22'0 0.0
2017-Oct-10 01:00N 51°15' E 004°22'0 0.0
2017-Oct-10 00:30N 51°15' E 004°22'0 0.0
2017-Oct-10 00:00N 51°15' E 004°22'0 0.0
2017-Oct-09 23:30N 51°15' E 004°22'0 0.0
2017-Oct-09 23:00N 51°15' E 004°22'0 0.0
2017-Oct-09 22:30N 51°15' E 004°22'0 0.0
2017-Oct-09 22:00N 51°15' E 004°22'0 0.0
2017-Oct-09 21:30N 51°15' E 004°22'0 0.0
2017-Oct-09 21:00N 51°15' E 004°22'0 0.0
2017-Oct-09 20:30N 51°15' E 004°22'0 0.0
2017-Oct-09 20:00N 51°15' E 004°22'0 0.0
2017-Oct-09 19:30N 51°15' E 004°22'0 0.0
2017-Oct-09 19:00N 51°15' E 004°22'0 0.0
2017-Oct-09 18:30N 51°15' E 004°22'0 0.0
2017-Oct-09 18:00N 51°15' E 004°22'0 0.0
2017-Oct-09 17:30N 51°15' E 004°22'0 0.0
2017-Oct-09 17:00N 51°15' E 004°22'0 0.0
2017-Oct-09 16:30N 51°15' E 004°22'0 0.0
2017-Oct-09 16:00N 51°15' E 004°22'0 0.0
2017-Oct-09 15:30N 51°15' E 004°22'0 0.0
2017-Oct-09 15:00N 51°15' E 004°22'0 0.0
2017-Oct-09 14:30N 51°15' E 004°22'0 0.0
2017-Oct-09 14:00N 51°15' E 004°22'0 0.0
2017-Oct-09 13:30N 51°15' E 004°22'0 0.0
2017-Oct-09 13:00N 51°15' E 004°22'0 0.0
2017-Oct-09 12:30N 51°15' E 004°22'0 0.0
2017-Oct-09 12:00N 51°15' E 004°22'0 0.0
2017-Oct-09 11:30N 51°15' E 004°22'0 0.0
2017-Oct-09 11:00N 51°15' E 004°22'0 0.0
2017-Oct-09 10:27N 51°15' E 004°22'0 0.0
2017-Oct-09 10:00N 51°15' E 004°22'0 0.0
2017-Oct-09 09:30N 51°15' E 004°22'0 0.0
2017-Oct-09 08:57N 51°15' E 004°22'0 0.0
2017-Oct-09 08:30N 51°15' E 004°22'0 0.0
2017-Oct-09 08:00N 51°15' E 004°22'0 0.0
2017-Oct-09 07:30N 51°15' E 004°22'0 0.0
2017-Oct-09 07:00N 51°15' E 004°22'0 0.0
2017-Oct-09 06:30N 51°15' E 004°22'0 0.0
2017-Oct-09 06:00N 51°15' E 004°22'0 0.0
2017-Oct-09 05:30N 51°15' E 004°22'0 0.0
2017-Oct-09 05:00N 51°15' E 004°22'0 0.0
2017-Oct-09 04:30N 51°15' E 004°22'0 0.0
2017-Oct-09 04:00N 51°15' E 004°22'0 0.0
2017-Oct-09 03:30N 51°15' E 004°22'0 0.0
2017-Oct-09 03:00N 51°15' E 004°22'0 0.0
2017-Oct-09 02:30N 51°15' E 004°22'0 0.0
2017-Oct-09 02:00N 51°15' E 004°22'0 0.0
2017-Oct-09 01:30N 51°15' E 004°22'0 0.0
2017-Oct-09 01:00N 51°15' E 004°22'0 0.0
2017-Oct-09 00:30N 51°15' E 004°22'0 0.0
2017-Oct-09 00:00N 51°15' E 004°22'0 0.0
2017-Oct-08 23:30N 51°15' E 004°22'0 0.0
2017-Oct-08 23:00N 51°15' E 004°22'0 0.0
2017-Oct-08 22:30N 51°15' E 004°22'0 0.0
2017-Oct-08 22:00N 51°15' E 004°22'0 0.0
2017-Oct-08 21:30N 51°15' E 004°22'0 0.0
2017-Oct-08 21:00N 51°15' E 004°22'0 0.0
2017-Oct-08 20:30N 51°15' E 004°22'0 0.0
2017-Oct-08 20:00N 51°15' E 004°22'0 0.0
2017-Oct-08 19:30N 51°15' E 004°22'0 0.0
2017-Oct-08 19:00N 51°15' E 004°22'0 0.0
2017-Oct-08 18:30N 51°15' E 004°22'0 0.0
2017-Oct-08 18:00N 51°15' E 004°22'0 0.0
2017-Oct-08 17:30N 51°15' E 004°22'0 0.0
2017-Oct-08 17:00N 51°15' E 004°22'0 0.0
2017-Oct-08 16:30N 51°15' E 004°22'0 0.0
2017-Oct-08 15:57N 51°15' E 004°22'0 0.0
2017-Oct-08 15:30N 51°15' E 004°22'0 0.0
2017-Oct-08 15:00N 51°15' E 004°22'0 0.0
2017-Oct-08 14:30N 51°15' E 004°22'0 0.0
2017-Oct-08 14:00N 51°15' E 004°22'0 0.0
2017-Oct-08 13:30N 51°15' E 004°22'0 0.0
2017-Oct-08 12:57N 51°15' E 004°22'0 0.0
2017-Oct-08 12:30N 51°15' E 004°22'0 0.0
2017-Oct-08 12:00N 51°15' E 004°22'0 0.0
2017-Oct-08 11:30N 51°15' E 004°22'0 0.0
2017-Oct-08 11:00N 51°15' E 004°22'0 0.0
2017-Oct-08 10:30N 51°15' E 004°22'0 0.0
2017-Oct-08 10:00N 51°15' E 004°22'0 0.0
2017-Oct-08 09:30N 51°15' E 004°22'0 0.0
2017-Oct-08 09:00N 51°15' E 004°22'0 0.0
2017-Oct-08 08:30N 51°15' E 004°22'0 0.0
2017-Oct-08 08:00N 51°15' E 004°22'0 0.0
2017-Oct-08 07:30N 51°15' E 004°22'0 0.0
2017-Oct-08 07:00N 51°15' E 004°22'0 0.0
2017-Oct-08 06:30N 51°15' E 004°22'0 0.0
2017-Oct-08 06:00N 51°15' E 004°22'0 0.0
2017-Oct-08 05:30N 51°15' E 004°22'0 0.0
2017-Oct-08 05:00N 51°15' E 004°22'0 0.0
2017-Oct-08 04:30N 51°15' E 004°22'0 0.0
2017-Oct-08 04:00N 51°15' E 004°22'0 0.0
2017-Oct-08 03:30N 51°15' E 004°22'0 0.0
2017-Oct-08 03:00N 51°15' E 004°22'0 0.0
2017-Oct-08 02:30N 51°15' E 004°22'0 0.0
2017-Oct-08 02:00N 51°15' E 004°22'0 0.0
2017-Oct-08 01:30N 51°15' E 004°22'0 0.0
2017-Oct-08 01:00N 51°15' E 004°22'0 0.0
2017-Oct-08 00:30N 51°15' E 004°22'0 0.0
2017-Oct-08 00:00N 51°15' E 004°22'0 0.0
2017-Oct-07 23:30N 51°15' E 004°22'0 0.0
2017-Oct-07 23:00N 51°15' E 004°22'0 0.0
2017-Oct-07 22:30N 51°15' E 004°22'0 0.0
2017-Oct-07 22:00N 51°15' E 004°22'0 0.0
2017-Oct-07 21:30N 51°15' E 004°22'0 0.0
2017-Oct-07 21:00N 51°15' E 004°22'0 0.0
2017-Oct-07 20:30N 51°15' E 004°22'0 0.0
2017-Oct-07 20:00N 51°15' E 004°22'0 0.0
2017-Oct-07 19:30N 51°15' E 004°22'0 0.0
2017-Oct-07 19:00N 51°15' E 004°22'0 0.0
2017-Oct-07 18:30N 51°15' E 004°22'0 0.0
2017-Oct-07 18:00N 51°15' E 004°22'0 0.0
2017-Oct-07 17:30N 51°15' E 004°22'0 0.0
2017-Oct-07 17:00N 51°15' E 004°22'0 0.0
2017-Oct-07 16:30N 51°15' E 004°22'0 0.0
2017-Oct-07 16:00N 51°15' E 004°22'0 0.0
2017-Oct-07 15:30N 51°15' E 004°22'0 0.0
2017-Oct-07 15:00N 51°15' E 004°22'0 0.0
2017-Oct-07 14:30N 51°15' E 004°22'0 0.0
2017-Oct-07 14:00N 51°15' E 004°22'0 0.0
2017-Oct-07 13:30N 51°15' E 004°22'0 0.0
2017-Oct-07 13:00N 51°15' E 004°22'0 0.0
2017-Oct-07 12:30N 51°15' E 004°22'0 0.0
2017-Oct-07 12:00N 51°15' E 004°22'0 0.0
2017-Oct-07 11:30N 51°15' E 004°22'0 0.0
2017-Oct-07 11:00N 51°15' E 004°22'0 0.0
2017-Oct-07 10:30N 51°15' E 004°22'0 0.0
2017-Oct-07 10:00N 51°15' E 004°22'0 0.0
2017-Oct-07 09:30N 51°15' E 004°22'0 0.0
2017-Oct-07 09:00N 51°15' E 004°22'0 0.0
2017-Oct-07 08:30N 51°15' E 004°22'0 0.0
2017-Oct-07 08:00N 51°15' E 004°22'0 0.0
2017-Oct-07 07:30N 51°15' E 004°22'0 0.0
2017-Oct-07 07:00N 51°15' E 004°22'0 0.0
2017-Oct-07 06:30N 51°15' E 004°22'0 0.0
2017-Oct-07 05:57N 51°15' E 004°22'0 0.0
2017-Oct-07 05:30N 51°15' E 004°22'0 0.0
2017-Oct-07 05:00N 51°15' E 004°22'0 0.0
2017-Oct-07 04:30N 51°15' E 004°22'0 0.0
2017-Oct-07 04:00N 51°15' E 004°22'0 0.0
2017-Oct-07 03:30N 51°15' E 004°22'0 0.0
2017-Oct-07 03:00N 51°15' E 004°22'0 0.0
2017-Oct-07 02:30N 51°15' E 004°22'0 0.0
2017-Oct-07 02:00N 51°15' E 004°22'0 0.0
2017-Oct-07 01:30N 51°15' E 004°22'0 0.0
2017-Oct-07 01:00N 51°15' E 004°22'0 0.0
2017-Oct-07 00:30N 51°15' E 004°22'0 0.0
2017-Oct-07 00:00N 51°15' E 004°22'0 0.0
2017-Oct-06 23:30N 51°15' E 004°22'0 0.0
2017-Oct-06 23:00N 51°15' E 004°22'0 0.0
2017-Oct-06 22:30N 51°15' E 004°22'0 0.0
2017-Oct-06 22:00N 51°15' E 004°22'0 0.0
2017-Oct-06 21:30N 51°15' E 004°22'0 0.0
2017-Oct-06 21:00N 51°15' E 004°22'0 0.0
2017-Oct-06 20:30N 51°15' E 004°22'0 0.0
2017-Oct-06 20:00N 51°15' E 004°22'0 0.0
2017-Oct-06 19:30N 51°15' E 004°22'0 0.0
2017-Oct-06 19:00N 51°15' E 004°22'0 0.0
2017-Oct-06 18:30N 51°15' E 004°22'0 0.0
2017-Oct-06 18:00N 51°15' E 004°22'0 0.0
2017-Oct-06 17:30N 51°15' E 004°22'0 0.0
2017-Oct-06 17:00N 51°15' E 004°22'0 0.0
2017-Oct-06 16:30N 51°15' E 004°22'0 0.0
2017-Oct-06 16:00N 51°15' E 004°22'0 0.0
2017-Oct-06 15:30N 51°15' E 004°22'0 0.0
2017-Oct-06 15:00N 51°15' E 004°22'0 0.0
2017-Oct-06 14:30N 51°15' E 004°22'0 0.0
2017-Oct-06 14:00N 51°15' E 004°22'0 0.0
2017-Oct-06 13:30N 51°15' E 004°22'0 0.0
2017-Oct-06 13:00N 51°15' E 004°22'0 0.0
2017-Oct-06 12:30N 51°15' E 004°22'0 0.0
2017-Oct-06 12:00N 51°15' E 004°22'0 0.0
2017-Oct-06 11:30N 51°15' E 004°22'0 0.0
2017-Oct-06 11:00N 51°15' E 004°22'0 0.0
2017-Oct-06 10:30N 51°15' E 004°22'0 0.0
2017-Oct-06 10:00N 51°15' E 004°22'0 0.0
2017-Oct-06 09:30N 51°15' E 004°22'0 0.0
2017-Oct-06 09:00N 51°15' E 004°22'0 0.0
2017-Oct-06 08:30N 51°15' E 004°22'  
Track history (hours):
 
Tides and Currents Weather Stations Pressure Air Temp Water Temp Dewpoint Dewpoint Depression Visibility Wind Speed Wind Dir Waves Ship Positions

Tin Ziren

Last reported at 2017-Oct-16 08:11 UTC. Time now 2017-Oct-18 07:48 UTC.
Position N 36°39' E 001°20'.

Length 147 m; draft 7.6 m.

Type: Ship. MMSI: 605086070.

Date/timePositionNaut miles runAvg speedWind from/ knotsBaromVisibWave heightAir tempDewpointWater temp
2017-Oct-16 08:11N 36°39' E 001°20'314.2
2017-Oct-16 07:58N 36°39' E 001°16'31513.2
2017-Oct-15 08:12N 35°59' W 005°11'314.5
2017-Oct-15 08:01N 35°60' W 005°15'714.1
2017-Oct-15 07:30N 35°58' W 005°23'4013.1
2017-Oct-15 04:25N 35°54' W 006°13'713.4
2017-Oct-15 03:53N 35°55' W 006°21'513.4
2017-Oct-15 03:30N 35°57' W 006°27'713.0
2017-Oct-15 02:59N 35°58' W 006°35'613.0
2017-Oct-15 02:29N 36°00' W 006°43'613.1
2017-Oct-15 02:01N 36°02' W 006°51'713.1
2017-Oct-15 01:30N 36°03' W 006°59'713.4
2017-Oct-15 01:01N 36°05' W 007°07'713.6
2017-Oct-15 00:30N 36°06' W 007°15'714.0
2017-Oct-15 00:00N 36°08' W 007°23'713.8
2017-Oct-14 23:29N 36°10' W 007°32'613.4
2017-Oct-14 23:00N 36°12' W 007°39'813.5
2017-Oct-14 22:24N 36°14' W 007°49'613.5
2017-Oct-14 21:57N 36°16' W 007°56'714.5
2017-Oct-14 21:29N 36°18' W 008°04'714.4
2017-Oct-14 20:59N 36°20' W 008°13'714.3
2017-Oct-14 20:30N 36°21' W 008°21'814.3
2017-Oct-14 19:57N 36°23' W 008°31'714.2
2017-Oct-14 19:29N 36°25' W 008°39'714.3
2017-Oct-14 18:59N 36°26' W 008°48'714.8
2017-Oct-14 18:30N 36°28' W 008°56'814.9
2017-Oct-14 18:00N 36°30' W 009°05'714.6
2017-Oct-14 17:30N 36°32' W 009°14'714.0
2017-Oct-14 17:01N 36°36' W 009°21'714.4
2017-Oct-14 16:30N 36°42' W 009°27'714.5
2017-Oct-14 16:00N 36°47' W 009°33'714.4
2017-Oct-14 15:31N 36°54' W 009°35'714.4
2017-Oct-14 15:00N 37°01' W 009°37'714.2
2017-Oct-14 14:31N 37°08' W 009°39'714.1
2017-Oct-14 14:00N 37°15' W 009°41'713.6
2017-Oct-14 13:30N 37°21' W 009°43'713.7
2017-Oct-14 13:00N 37°28' W 009°44'713.7
2017-Oct-14 12:30N 37°35' W 009°46'713.9
2017-Oct-14 12:00N 37°41' W 009°48'714.2
2017-Oct-14 11:30N 37°48' W 009°50'714.1
2017-Oct-14 11:00N 37°55' W 009°52'714.7
2017-Oct-14 10:30N 38°02' W 009°55'714.9
2017-Oct-14 10:00N 38°09' W 009°57'714.1
2017-Oct-14 09:30N 38°16' W 009°59'714.5
2017-Oct-14 09:00N 38°23' W 010°01'714.5
2017-Oct-14 08:30N 38°30' W 010°03'714.5
2017-Oct-14 08:00N 38°38' W 010°05'714.5
2017-Oct-14 07:30N 38°45' W 010°06'714.6
2017-Oct-14 07:00N 38°52' W 010°06'714.8
2017-Oct-14 06:30N 38°59' W 010°06'714.7
2017-Oct-14 06:00N 39°07' W 010°06'714.7
2017-Oct-14 05:30N 39°14' W 010°05'714.8
2017-Oct-14 05:00N 39°21' W 010°05'714.6
2017-Oct-14 04:30N 39°29' W 010°06'714.2
2017-Oct-14 04:00N 39°36' W 010°07'714.3
2017-Oct-14 03:30N 39°43' W 010°07'714.4
2017-Oct-14 03:00N 39°50' W 010°06'714.4
2017-Oct-14 02:30N 39°57' W 010°06'714.1
2017-Oct-14 02:00N 40°05' W 010°06'714.3
2017-Oct-14 01:30N 40°12' W 010°06'714.1
2017-Oct-14 01:00N 40°19' W 010°06'714.3
2017-Oct-14 00:30N 40°26' W 010°06'714.2
2017-Oct-14 00:00N 40°33' W 010°07'714.2
2017-Oct-13 23:30N 40°40' W 010°07'714.5
2017-Oct-13 23:00N 40°47' W 010°06'1914.5
2017-Oct-13 21:43N 41°06' W 010°06'314.3
2017-Oct-13 21:30N 41°09' W 010°06'1614.4
2017-Oct-13 20:24N 41°25' W 010°06'614.7
2017-Oct-13 20:01N 41°31' W 010°05'714.6
2017-Oct-13 19:31N 41°38' W 010°05'714.8
2017-Oct-13 19:01N 41°45' W 010°05'714.8
2017-Oct-13 18:30N 41°53' W 010°06'34514.2
2017-Oct-12 18:09N 47°11' W 006°59'614.4
2017-Oct-12 17:43N 47°17' W 006°55'12513.8
2017-Oct-12 08:36N 49°05' W 005°19'3112.7
2017-Oct-12 06:11N 49°20' W 004°38'313.5
2017-Oct-12 05:59N 49°21' W 004°35'4314.2
2017-Oct-12 02:59N 49°43' W 003°38'714.1
2017-Oct-12 02:30N 49°47' W 003°29'713.6
2017-Oct-12 02:00N 49°50' W 003°20'913.2
2017-Oct-12 01:19N 49°55' W 003°08'412.6
2017-Oct-12 01:00N 49°57' W 003°03'712.1
2017-Oct-12 00:26N 49°59' W 002°53'9613.0
2017-Oct-11 17:04N 50°25' W 000°28'114.4
2017-Oct-11 17:00N 50°25' W 000°27'18610.9
2017-Oct-11 00:00N 51°23' E 004°13'3 6.5
2017-Oct-10 23:30N 51°21' E 004°17'0 0.0
2017-Oct-10 23:01N 51°21' E 004°17'0 0.1
2017-Oct-10 22:31N 51°21' E 004°17'1 1.7
2017-Oct-10 22:00N 51°20' E 004°18'3 6.4
2017-Oct-10 21:30N 51°17' E 004°20'2 4.9
2017-Oct-10 21:00N 51°15' E 004°22'0 0.5
2017-Oct-10 20:31N 51°15' E 004°22'0 0.0
2017-Oct-10 19:58N 51°15' E 004°22'0 0.0
2017-Oct-10 19:31N 51°15' E 004°22'0 0.0
2017-Oct-10 19:00N 51°15' E 004°22'0 0.0
2017-Oct-10 18:27N 51°15' E 004°22'0 0.0
2017-Oct-10 18:01N 51°15' E 004°22'0 0.0
2017-Oct-10 17:28N 51°15' E 004°22'0 0.0
2017-Oct-10 16:57N 51°15' E 004°22'0 0.0
2017-Oct-10 16:31N 51°15' E 004°22'0 0.0
2017-Oct-10 15:58N 51°15' E 004°22'0 0.0
2017-Oct-10 15:30N 51°15' E 004°22'0 0.0
2017-Oct-10 15:01N 51°15' E 004°22'0 0.0
2017-Oct-10 14:01N 51°15' E 004°22'0 0.0
2017-Oct-10 13:30N 51°15' E 004°22'0 0.0
2017-Oct-10 12:57N 51°15' E 004°22'0 0.0
2017-Oct-10 12:28N 51°15' E 004°22'0 0.0
2017-Oct-10 12:01N 51°15' E 004°22'0 0.0
2017-Oct-10 11:30N 51°15' E 004°22'0 0.0
2017-Oct-10 10:57N 51°15' E 004°22'0 0.0
2017-Oct-10 10:30N 51°15' E 004°22'0 0.0
2017-Oct-10 09:57N 51°15' E 004°22'0 0.0
2017-Oct-10 09:30N 51°15' E 004°22'0 0.0
2017-Oct-10 09:00N 51°15' E 004°22'0 0.0
2017-Oct-10 08:30N 51°15' E 004°22'0 0.0
2017-Oct-10 08:00N 51°15' E 004°22'0 0.0
2017-Oct-10 07:27N 51°15' E 004°22'0 0.0
2017-Oct-10 07:00N 51°15' E 004°22'0 0.0
2017-Oct-10 06:30N 51°15' E 004°22'0 0.0
2017-Oct-10 06:01N 51°15' E 004°22'0 0.0
2017-Oct-10 05:31N 51°15' E 004°22'0 0.0
2017-Oct-10 05:00N 51°15' E 004°22'0 0.0
2017-Oct-10 04:30N 51°15' E 004°22'0 0.0
2017-Oct-10 04:01N 51°15' E 004°22'0 0.0
2017-Oct-10 03:30N 51°15' E 004°22'0 0.0
2017-Oct-10 03:01N 51°15' E 004°22'0 0.0
2017-Oct-10 02:30N 51°15' E 004°22'0 0.0
2017-Oct-10 02:00N 51°15' E 004°22'0 0.0
2017-Oct-10 01:31N 51°15' E 004°22'0 0.0
2017-Oct-10 01:00N 51°15' E 004°22'0 0.0
2017-Oct-10 00:30N 51°15' E 004°22'0 0.0
2017-Oct-10 00:00N 51°15' E 004°22'0 0.0
2017-Oct-09 23:30N 51°15' E 004°22'0 0.0
2017-Oct-09 23:00N 51°15' E 004°22'0 0.0
2017-Oct-09 22:30N 51°15' E 004°22'0 0.0
2017-Oct-09 22:00N 51°15' E 004°22'0 0.0
2017-Oct-09 21:30N 51°15' E 004°22'0 0.0
2017-Oct-09 21:00N 51°15' E 004°22'0 0.0
2017-Oct-09 20:30N 51°15' E 004°22'0 0.0
2017-Oct-09 20:00N 51°15' E 004°22'0 0.0
2017-Oct-09 19:30N 51°15' E 004°22'0 0.0
2017-Oct-09 19:00N 51°15' E 004°22'0 0.0
2017-Oct-09 18:30N 51°15' E 004°22'0 0.0
2017-Oct-09 18:00N 51°15' E 004°22'0 0.0
2017-Oct-09 17:30N 51°15' E 004°22'0 0.0
2017-Oct-09 17:00N 51°15' E 004°22'0 0.0
2017-Oct-09 16:30N 51°15' E 004°22'0 0.0
2017-Oct-09 16:00N 51°15' E 004°22'0 0.0
2017-Oct-09 15:30N 51°15' E 004°22'0 0.0
2017-Oct-09 15:00N 51°15' E 004°22'0 0.0
2017-Oct-09 14:30N 51°15' E 004°22'0 0.0
2017-Oct-09 14:00N 51°15' E 004°22'0 0.0
2017-Oct-09 13:30N 51°15' E 004°22'0 0.0
2017-Oct-09 13:00N 51°15' E 004°22'0 0.0
2017-Oct-09 12:30N 51°15' E 004°22'0 0.0
2017-Oct-09 12:00N 51°15' E 004°22'0 0.0
2017-Oct-09 11:30N 51°15' E 004°22'0 0.0
2017-Oct-09 11:00N 51°15' E 004°22'0 0.0
2017-Oct-09 10:27N 51°15' E 004°22'0 0.0
2017-Oct-09 10:00N 51°15' E 004°22'0 0.0
2017-Oct-09 09:30N 51°15' E 004°22'0 0.0
2017-Oct-09 08:57N 51°15' E 004°22'0 0.0
2017-Oct-09 08:30N 51°15' E 004°22'0 0.0
2017-Oct-09 08:00N 51°15' E 004°22'0 0.0
2017-Oct-09 07:30N 51°15' E 004°22'0 0.0
2017-Oct-09 07:00N 51°15' E 004°22'0 0.0
2017-Oct-09 06:30N 51°15' E 004°22'0 0.0
2017-Oct-09 06:00N 51°15' E 004°22'0 0.0
2017-Oct-09 05:30N 51°15' E 004°22'0 0.0
2017-Oct-09 05:00N 51°15' E 004°22'0 0.0
2017-Oct-09 04:30N 51°15' E 004°22'0 0.0
2017-Oct-09 04:00N 51°15' E 004°22'0 0.0
2017-Oct-09 03:30N 51°15' E 004°22'0 0.0
2017-Oct-09 03:00N 51°15' E 004°22'0 0.0
2017-Oct-09 02:30N 51°15' E 004°22'0 0.0
2017-Oct-09 02:00N 51°15' E 004°22'0 0.0
2017-Oct-09 01:30N 51°15' E 004°22'0 0.0
2017-Oct-09 01:00N 51°15' E 004°22'0 0.0
2017-Oct-09 00:30N 51°15' E 004°22'0 0.0
2017-Oct-09 00:00N 51°15' E 004°22'0 0.0
2017-Oct-08 23:30N 51°15' E 004°22'0 0.0
2017-Oct-08 23:00N 51°15' E 004°22'0 0.0
2017-Oct-08 22:30N 51°15' E 004°22'0 0.0
2017-Oct-08 22:00N 51°15' E 004°22'0 0.0
2017-Oct-08 21:30N 51°15' E 004°22'0 0.0
2017-Oct-08 21:00N 51°15' E 004°22'0 0.0
2017-Oct-08 20:30N 51°15' E 004°22'0 0.0
2017-Oct-08 20:00N 51°15' E 004°22'0 0.0
2017-Oct-08 19:30N 51°15' E 004°22'0 0.0
2017-Oct-08 19:00N 51°15' E 004°22'0 0.0
2017-Oct-08 18:30N 51°15' E 004°22'0 0.0
2017-Oct-08 18:00N 51°15' E 004°22'0 0.0
2017-Oct-08 17:30N 51°15' E 004°22'0 0.0
2017-Oct-08 17:00N 51°15' E 004°22'0 0.0
2017-Oct-08 16:30N 51°15' E 004°22'0 0.0
2017-Oct-08 15:57N 51°15' E 004°22'0 0.0
2017-Oct-08 15:30N 51°15' E 004°22'0 0.0
2017-Oct-08 15:00N 51°15' E 004°22'0 0.0
2017-Oct-08 14:30N 51°15' E 004°22'0 0.0
2017-Oct-08 14:00N 51°15' E 004°22'0 0.0
2017-Oct-08 13:30N 51°15' E 004°22'0 0.0
2017-Oct-08 12:57N 51°15' E 004°22'0 0.0
2017-Oct-08 12:30N 51°15' E 004°22'0 0.0
2017-Oct-08 12:00N 51°15' E 004°22'0 0.0
2017-Oct-08 11:30N 51°15' E 004°22'0 0.0
2017-Oct-08 11:00N 51°15' E 004°22'0 0.0
2017-Oct-08 10:30N 51°15' E 004°22'0 0.0
2017-Oct-08 10:00N 51°15' E 004°22'0 0.0
2017-Oct-08 09:30N 51°15' E 004°22'0 0.0
2017-Oct-08 09:00N 51°15' E 004°22'0 0.0
2017-Oct-08 08:30N 51°15' E 004°22'0 0.0
2017-Oct-08 08:00N 51°15' E 004°22'0 0.0
2017-Oct-08 07:30N 51°15' E 004°22'0 0.0
2017-Oct-08 07:00N 51°15' E 004°22'0 0.0
2017-Oct-08 06:30N 51°15' E 004°22'0 0.0
2017-Oct-08 06:00N 51°15' E 004°22'0 0.0
2017-Oct-08 05:30N 51°15' E 004°22'0 0.0
2017-Oct-08 05:00N 51°15' E 004°22'0 0.0
2017-Oct-08 04:30N 51°15' E 004°22'0 0.0
2017-Oct-08 04:00N 51°15' E 004°22'0 0.0
2017-Oct-08 03:30N 51°15' E 004°22'0 0.0
2017-Oct-08 03:00N 51°15' E 004°22'0 0.0
2017-Oct-08 02:30N 51°15' E 004°22'0 0.0
2017-Oct-08 02:00N 51°15' E 004°22'0 0.0
2017-Oct-08 01:30N 51°15' E 004°22'0 0.0
2017-Oct-08 01:00N 51°15' E 004°22'0 0.0
2017-Oct-08 00:30N 51°15' E 004°22'0 0.0
2017-Oct-08 00:00N 51°15' E 004°22'0 0.0
2017-Oct-07 23:30N 51°15' E 004°22'0 0.0
2017-Oct-07 23:00N 51°15' E 004°22'0 0.0
2017-Oct-07 22:30N 51°15' E 004°22'0 0.0
2017-Oct-07 22:00N 51°15' E 004°22'0 0.0
2017-Oct-07 21:30N 51°15' E 004°22'0 0.0
2017-Oct-07 21:00N 51°15' E 004°22'0 0.0
2017-Oct-07 20:30N 51°15' E 004°22'0 0.0
2017-Oct-07 20:00N 51°15' E 004°22'0 0.0
2017-Oct-07 19:30N 51°15' E 004°22'0 0.0
2017-Oct-07 19:00N 51°15' E 004°22'0 0.0
2017-Oct-07 18:30N 51°15' E 004°22'0 0.0
2017-Oct-07 18:00N 51°15' E 004°22'0 0.0
2017-Oct-07 17:30N 51°15' E 004°22'0 0.0
2017-Oct-07 17:00N 51°15' E 004°22'0 0.0
2017-Oct-07 16:30N 51°15' E 004°22'0 0.0
2017-Oct-07 16:00N 51°15' E 004°22'0 0.0
2017-Oct-07 15:30N 51°15' E 004°22'0 0.0
2017-Oct-07 15:00N 51°15' E 004°22'0 0.0
2017-Oct-07 14:30N 51°15' E 004°22'0 0.0
2017-Oct-07 14:00N 51°15' E 004°22'0 0.0
2017-Oct-07 13:30N 51°15' E 004°22'0 0.0
2017-Oct-07 13:00N 51°15' E 004°22'0 0.0
2017-Oct-07 12:30N 51°15' E 004°22'0 0.0
2017-Oct-07 12:00N 51°15' E 004°22'0 0.0
2017-Oct-07 11:30N 51°15' E 004°22'0 0.0
2017-Oct-07 11:00N 51°15' E 004°22'0 0.0
2017-Oct-07 10:30N 51°15' E 004°22'0 0.0
2017-Oct-07 10:00N 51°15' E 004°22'0 0.0
2017-Oct-07 09:30N 51°15' E 004°22'0 0.0
2017-Oct-07 09:00N 51°15' E 004°22'0 0.0
2017-Oct-07 08:30N 51°15' E 004°22'0 0.0
2017-Oct-07 08:00N 51°15' E 004°22'0 0.0
2017-Oct-07 07:30N 51°15' E 004°22'0 0.0
2017-Oct-07 07:00N 51°15' E 004°22'0 0.0
2017-Oct-07 06:30N 51°15' E 004°22'0 0.0
2017-Oct-07 05:57N 51°15' E 004°22'0 0.0
2017-Oct-07 05:30N 51°15' E 004°22'0 0.0
2017-Oct-07 05:00N 51°15' E 004°22'0 0.0
2017-Oct-07 04:30N 51°15' E 004°22'0 0.0
2017-Oct-07 04:00N 51°15' E 004°22'0 0.0
2017-Oct-07 03:30N 51°15' E 004°22'0 0.0
2017-Oct-07 03:00N 51°15' E 004°22'0 0.0
2017-Oct-07 02:30N 51°15' E 004°22'0 0.0
2017-Oct-07 02:00N 51°15' E 004°22'0 0.0
2017-Oct-07 01:30N 51°15' E 004°22'0 0.0
2017-Oct-07 01:00N 51°15' E 004°22'0 0.0
2017-Oct-07 00:30N 51°15' E 004°22'0 0.0
2017-Oct-07 00:00N 51°15' E 004°22'0 0.0
2017-Oct-06 23:30N 51°15' E 004°22'0 0.0
2017-Oct-06 23:00N 51°15' E 004°22'0 0.0
2017-Oct-06 22:30N 51°15' E 004°22'0 0.0
2017-Oct-06 22:00N 51°15' E 004°22'0 0.0
2017-Oct-06 21:30N 51°15' E 004°22'0 0.0
2017-Oct-06 21:00N 51°15' E 004°22'0 0.0
2017-Oct-06 20:30N 51°15' E 004°22'0 0.0
2017-Oct-06 20:00N 51°15' E 004°22'0 0.0
2017-Oct-06 19:30N 51°15' E 004°22'0 0.0
2017-Oct-06 19:00N 51°15' E 004°22'0 0.0
2017-Oct-06 18:30N 51°15' E 004°22'0 0.0
2017-Oct-06 18:00N 51°15' E 004°22'0 0.0
2017-Oct-06 17:30N 51°15' E 004°22'0 0.0
2017-Oct-06 17:00N 51°15' E 004°22'0 0.0
2017-Oct-06 16:30N 51°15' E 004°22'0 0.0
2017-Oct-06 16:00N 51°15' E 004°22'0 0.0
2017-Oct-06 15:30N 51°15' E 004°22'0 0.0
2017-Oct-06 15:00N 51°15' E 004°22'0 0.0
2017-Oct-06 14:30N 51°15' E 004°22'0 0.0
2017-Oct-06 14:00N 51°15' E 004°22'0 0.0
2017-Oct-06 13:30N 51°15' E 004°22'0 0.0
2017-Oct-06 13:00N 51°15' E 004°22'0 0.0
2017-Oct-06 12:30N 51°15' E 004°22'0 0.0
2017-Oct-06 12:00N 51°15' E 004°22'0 0.0
2017-Oct-06 11:30N 51°15' E 004°22'0 0.0
2017-Oct-06 11:00N 51°15' E 004°22'0 0.0
2017-Oct-06 10:30N 51°15' E 004°22'0 0.0
2017-Oct-06 10:00N 51°15' E 004°22'0 0.0
2017-Oct-06 09:30N 51°15' E 004°22'0 0.0
2017-Oct-06 09:00N 51°15' E 004°22'0 0.0
2017-Oct-06 08:30N 51°15' E 004°22'  

Dump ship's entire track history